createdAt,value
2019-01-23T00:32:54.650Z,20.30
2019-01-23T00:35:23.856Z,18.20
2019-01-23T00:37:53.605Z,22.00
2019-01-23T00:40:22.896Z,18.57
2019-01-23T00:42:52.229Z,17.87
2019-01-23T00:45:21.620Z,20.70
2019-01-23T00:47:51.155Z,21.97
2019-01-23T00:50:20.475Z,17.70
2019-01-23T00:52:49.803Z,22.63
2019-01-23T00:55:19.281Z,21.07
2019-01-23T00:57:48.763Z,17.60
2019-01-23T01:00:22.778Z,20.20
2019-01-23T01:02:52.172Z,19.97
2019-01-23T01:05:21.633Z,20.27
2019-01-23T01:07:50.976Z,19.70
2019-01-23T01:10:20.367Z,17.57
2019-01-23T01:12:49.662Z,19.37
2019-01-23T01:15:19.042Z,18.93
2019-01-23T01:17:48.462Z,19.90
2019-01-23T01:20:17.848Z,21.97
2019-01-23T01:22:47.353Z,22.20
2019-01-23T01:25:17.802Z,19.17
2019-01-23T01:27:47.176Z,15.50
2019-01-23T01:30:18.936Z,21.10
2019-01-23T01:32:48.362Z,18.53
2019-01-23T01:35:17.901Z,19.93
2019-01-23T01:37:47.266Z,19.63
2019-01-23T01:40:17.487Z,14.10
2019-01-23T01:42:46.880Z,19.10
2019-01-23T01:45:17.550Z,14.40
2019-01-23T01:47:46.926Z,15.23
2019-01-23T01:50:20.849Z,19.87
2019-01-23T01:52:50.270Z,15.07
2019-01-23T01:55:19.566Z,18.90
2019-01-23T01:57:48.962Z,18.43
2019-01-23T02:00:20.364Z,17.40
2019-01-23T02:02:49.607Z,17.93
2019-01-23T02:05:18.958Z,18.57
2019-01-23T02:07:48.308Z,17.70
2019-01-23T02:10:20.041Z,17.63
2019-01-23T02:12:50.463Z,19.67
2019-01-23T02:15:20.257Z,17.97
2019-01-23T02:17:49.935Z,15.50
2019-01-23T02:20:24.586Z,16.07
2019-01-23T02:22:53.928Z,17.93
2019-01-23T02:25:23.354Z,15.73
2019-01-23T02:27:52.922Z,12.33
2019-01-23T02:30:24.073Z,16.87
2019-01-23T02:32:53.880Z,16.20
2019-01-23T02:35:23.309Z,16.87
2019-01-23T02:37:52.847Z,15.73
2019-01-23T02:40:23.466Z,16.67
2019-01-23T02:42:52.938Z,16.60
2019-01-23T02:45:23.070Z,15.00
2019-01-23T02:47:52.636Z,15.77
2019-01-23T02:50:21.956Z,16.90
2019-01-23T02:52:51.430Z,17.00
2019-01-23T02:55:20.713Z,16.00
2019-01-23T02:57:50.170Z,16.93
2019-01-23T03:00:20.479Z,17.40
2019-01-23T03:02:50.598Z,17.87
2019-01-23T03:05:22.372Z,16.97
2019-01-23T03:07:51.775Z,18.67
2019-01-23T03:10:22.194Z,16.90
2019-01-23T03:12:52.553Z,17.83
2019-01-23T03:15:21.870Z,18.17
2019-01-23T03:17:51.379Z,17.67
2019-01-23T03:20:21.124Z,17.90
2019-01-23T03:22:50.535Z,16.70
2019-01-23T03:25:19.922Z,17.30
2019-01-23T03:27:49.359Z,18.20
2019-01-23T03:30:21.317Z,17.00
2019-01-23T03:32:50.842Z,18.20
2019-01-23T03:35:20.252Z,17.43
2019-01-23T03:37:49.751Z,17.77
2019-01-23T03:40:20.565Z,18.53
2019-01-23T03:42:50.386Z,18.33
2019-01-23T03:45:19.794Z,19.17
2019-01-23T03:47:49.096Z,18.20
2019-01-23T03:50:19.406Z,17.27
2019-01-23T03:52:48.896Z,17.87
2019-01-23T03:55:18.677Z,18.23
2019-01-23T03:57:48.165Z,18.77
2019-01-23T04:00:19.424Z,18.73
2019-01-23T04:02:49.222Z,18.73
2019-01-23T04:05:18.786Z,19.97
2019-01-23T04:07:48.257Z,18.90
2019-01-23T04:10:17.633Z,17.43
2019-01-23T04:12:47.095Z,17.07
2019-01-23T04:15:16.628Z,18.23
2019-01-23T04:17:46.322Z,17.77
2019-01-23T04:20:20.221Z,18.83
2019-01-23T04:22:49.672Z,18.27
2019-01-23T04:25:19.139Z,18.47
2019-01-23T04:27:58.280Z,18.63
2019-01-23T04:30:27.656Z,17.47
2019-01-23T04:32:57.832Z,18.70
2019-01-23T04:35:27.236Z,16.87
2019-01-23T04:37:56.727Z,19.57
2019-01-23T04:40:26.055Z,19.47
2019-01-23T04:42:55.553Z,18.93
2019-01-23T04:45:24.937Z,19.17
2019-01-23T04:47:54.356Z,19.57
2019-01-23T04:50:23.697Z,20.67
2019-01-23T04:53:09.525Z,20.20
2019-01-23T04:55:40.319Z,21.13
2019-01-23T04:58:09.670Z,20.20
2019-01-23T05:00:41.071Z,18.20
2019-01-23T05:03:10.426Z,19.53
2019-01-23T05:05:39.822Z,19.20
2019-01-23T05:08:09.178Z,18.63
2019-01-23T05:10:38.501Z,19.33
2019-01-23T05:13:07.803Z,18.83
2019-01-23T05:15:37.247Z,19.37
2019-01-23T05:18:08.338Z,19.63
2019-01-23T05:20:37.751Z,18.57
2019-01-23T05:23:07.238Z,18.77
2019-01-23T05:25:36.572Z,18.77
2019-01-23T05:28:05.867Z,20.10
2019-01-23T05:30:35.211Z,19.23
2019-01-23T05:33:04.616Z,19.57
2019-01-23T05:35:34.151Z,19.03
2019-01-23T05:38:03.516Z,19.83
2019-01-23T05:40:32.860Z,19.17
2019-01-23T05:43:02.180Z,20.07
2019-01-23T05:45:33.392Z,19.50
2019-01-23T05:48:02.761Z,18.53
2019-01-23T05:50:32.099Z,19.27
2019-01-23T05:53:01.490Z,19.67
2019-01-23T05:55:30.914Z,19.37
2019-01-23T05:58:00.407Z,20.00
2019-01-23T06:00:30.341Z,20.20
2019-01-23T06:02:59.916Z,21.43
2019-01-23T06:05:31.270Z,20.97
2019-01-23T06:08:00.880Z,21.47
2019-01-23T06:10:30.289Z,20.63
2019-01-23T06:12:59.519Z,21.30
2019-01-23T06:15:29.114Z,20.67
2019-01-23T06:17:58.709Z,20.80
2019-01-23T06:20:47.541Z,21.93
2019-01-23T06:23:18.085Z,22.27
2019-01-23T06:25:47.551Z,22.00
2019-01-23T06:28:19.121Z,21.80
2019-01-23T06:30:48.386Z,21.03
2019-01-23T06:36:49.169Z,22.63
2019-01-23T06:39:22.279Z,22.63
2019-01-23T06:41:51.651Z,23.13
2019-01-23T06:44:24.587Z,23.10
2019-01-23T06:46:55.156Z,22.10
2019-01-23T06:49:24.908Z,22.07
2019-01-23T06:51:54.617Z,21.90
2019-01-23T06:54:53.159Z,19.40
2019-01-23T06:57:20.039Z,22.27
2019-01-23T06:59:49.918Z,21.83
2019-01-23T07:02:19.746Z,21.77
2019-01-23T07:04:49.394Z,22.77
2019-01-23T07:07:21.350Z,23.57
2019-01-23T07:10:01.838Z,20.97
2019-01-23T07:12:31.207Z,20.93
2019-01-23T07:15:26.421Z,22.00
2019-01-23T07:17:55.528Z,21.07
2019-01-23T07:20:26.136Z,22.47
2019-01-23T07:23:14.547Z,21.70
2019-01-23T07:25:43.686Z,19.90
2019-01-23T07:28:19.715Z,21.63
2019-01-23T07:30:58.125Z,17.73
2019-01-23T07:33:27.187Z,23.70
2019-01-23T07:35:56.381Z,21.57
2019-01-23T07:39:13.331Z,20.27
2019-01-23T07:41:42.984Z,21.07
2019-01-23T07:44:19.441Z,19.40
2019-01-23T07:46:48.626Z,21.30
2019-01-23T07:49:17.779Z,19.63
2019-01-23T07:51:46.937Z,21.97
2019-01-23T07:54:16.194Z,21.87
2019-01-23T07:56:45.226Z,22.20
2019-01-23T07:59:14.385Z,19.53
2019-01-23T08:01:48.065Z,20.27
2019-01-23T08:04:16.962Z,20.93
2019-01-23T08:06:46.088Z,21.50
2019-01-23T08:09:15.202Z,21.07
2019-01-23T08:11:44.366Z,21.27
2019-01-23T08:14:13.578Z,21.90
2019-01-23T08:16:42.687Z,21.93
2019-01-23T08:19:32.850Z,21.20
2019-01-23T08:22:02.027Z,21.40
2019-01-23T08:24:31.152Z,20.80
2019-01-23T08:27:06.873Z,19.40
2019-01-23T08:29:31.255Z,20.97
2019-01-23T08:32:00.473Z,18.87
2019-01-23T08:34:29.640Z,20.93
2019-01-23T08:36:58.843Z,19.17
2019-01-23T08:39:31.280Z,20.87
2019-01-23T08:42:00.543Z,20.20
2019-01-23T08:44:29.681Z,20.67
2019-01-23T08:46:58.912Z,21.17
2019-01-23T08:49:28.327Z,20.93
2019-01-23T08:51:57.493Z,20.93
2019-01-23T08:54:26.645Z,20.93
2019-01-23T08:56:55.757Z,21.50
2019-01-23T08:59:24.845Z,20.40
2019-01-23T09:01:53.938Z,21.00
2019-01-23T09:04:23.092Z,19.83
2019-01-23T09:06:52.391Z,21.53
2019-01-23T09:09:26.017Z,19.50
2019-01-23T09:11:55.134Z,21.30
2019-01-23T09:14:24.236Z,18.00
2019-01-23T09:16:53.563Z,19.13
2019-01-23T09:19:22.843Z,19.83
2019-01-23T09:21:52.046Z,20.67
2019-01-23T09:24:21.453Z,19.57
2019-01-23T09:26:50.710Z,16.17
2019-01-23T09:29:19.967Z,20.00
2019-01-23T09:32:17.268Z,17.97
2019-01-23T09:35:19.068Z,19.20
2019-01-23T09:38:24.382Z,21.13
2019-01-23T09:41:04.228Z,17.27
2019-01-23T09:44:14.793Z,14.40
2019-01-23T09:47:10.518Z,18.60
2019-01-23T09:50:16.523Z,19.67
2019-01-23T09:53:02.102Z,21.07
2019-01-23T09:55:31.479Z,16.37
2019-01-23T09:58:07.529Z,21.37
2019-01-23T10:00:36.732Z,19.73
2019-01-23T10:03:05.846Z,20.43
2019-01-23T10:05:35.019Z,19.80
2019-01-23T10:08:04.288Z,21.27
2019-01-23T10:10:33.490Z,19.23
2019-01-23T10:13:02.795Z,19.40
2019-01-23T10:15:50.748Z,18.10
2019-01-23T10:18:20.147Z,20.03
2019-01-23T10:20:49.318Z,16.40
2019-01-23T10:23:18.419Z,19.03
2019-01-23T10:25:47.608Z,18.10
2019-01-23T10:28:20.629Z,17.63
2019-01-23T10:30:50.037Z,19.73
2019-01-23T10:33:20.099Z,20.10
2019-01-23T10:35:49.329Z,17.77
2019-01-23T10:38:18.546Z,20.60
2019-01-23T10:40:47.709Z,18.53
2019-01-23T10:43:16.910Z,18.50
2019-01-23T10:45:46.665Z,18.03
2019-01-23T10:48:16.780Z,17.40
2019-01-23T10:50:46.087Z,17.30
2019-01-23T10:53:15.350Z,18.13
2019-01-23T10:55:44.508Z,19.20
2019-01-23T10:58:14.044Z,18.90
2019-01-23T11:00:43.276Z,17.73
2019-01-23T11:03:12.557Z,17.70
2019-01-23T11:05:41.675Z,19.17
2019-01-23T11:08:10.896Z,19.07
2019-01-23T11:10:40.095Z,18.50
2019-01-23T11:13:11.164Z,18.70
2019-01-23T11:15:43.091Z,18.00
2019-01-23T11:18:12.523Z,18.63
2019-01-23T11:20:41.818Z,17.80
2019-01-23T11:23:11.302Z,17.63
2019-01-23T11:25:40.612Z,19.73
2019-01-23T11:28:09.874Z,19.67
2019-01-23T11:30:39.200Z,18.60
2019-01-23T11:33:08.483Z,19.73
2019-01-23T11:35:37.570Z,21.03
2019-01-23T11:38:06.771Z,21.37
2019-01-23T11:40:36.860Z,19.20
2019-01-23T11:43:15.910Z,19.83
2019-01-23T11:45:45.804Z,18.13
2019-01-23T11:48:35.809Z,20.23
2019-01-23T11:51:06.782Z,19.50
2019-01-23T11:53:37.901Z,16.83
2019-01-23T11:56:30.624Z,18.20
2019-01-23T15:19:40.579Z,21.40
2019-01-23T15:22:10.715Z,20.90
2019-01-23T15:24:43.179Z,20.37
2019-01-23T15:27:12.536Z,19.90
2019-01-23T15:29:41.712Z,22.07
2019-01-23T15:32:17.450Z,19.97
2019-01-23T15:34:48.373Z,20.83
2019-01-23T15:37:17.503Z,21.60
2019-01-23T15:39:46.655Z,21.63
2019-01-23T15:42:15.922Z,21.50
2019-01-23T15:44:45.205Z,22.47
2019-01-23T15:47:14.506Z,21.90
2019-01-23T15:49:43.827Z,19.50
2019-01-23T15:52:12.974Z,18.60
2019-01-23T15:54:42.375Z,20.13
2019-01-23T15:57:11.461Z,20.17
2019-01-23T15:59:40.687Z,20.73
2019-01-23T16:02:09.899Z,21.77
2019-01-23T16:04:39.343Z,20.70
2019-01-23T16:07:08.948Z,23.30
2019-01-23T16:09:38.514Z,21.33
2019-01-23T16:12:08.053Z,21.73
2019-01-23T16:14:37.569Z,23.87
2019-01-23T16:17:07.161Z,22.47
2019-01-23T16:19:37.414Z,22.30
2019-01-23T16:22:06.831Z,23.37
2019-01-23T16:24:36.235Z,25.63
2019-01-23T16:27:07.631Z,25.20
2019-01-23T16:29:37.087Z,24.00
2019-01-23T16:32:06.437Z,24.27
2019-01-23T16:34:35.888Z,23.17
2019-01-23T16:37:07.721Z,24.57
2019-01-23T16:39:37.686Z,25.67
2019-01-23T16:42:07.497Z,26.07
2019-01-23T16:44:44.115Z,25.23
2019-01-23T16:47:13.732Z,27.73
2019-01-23T16:49:43.308Z,25.47
2019-01-23T16:52:12.833Z,27.73
2019-01-23T16:54:42.335Z,26.17
2019-01-23T16:57:11.913Z,26.33
2019-01-23T16:59:41.421Z,24.23
2019-01-23T17:02:17.914Z,25.13
2019-01-23T17:04:48.457Z,25.23
2019-01-23T17:07:19.270Z,23.57
2019-01-23T17:09:49.120Z,24.20
2019-01-23T17:12:18.983Z,25.73
2019-01-23T17:14:50.052Z,21.73
2019-01-23T17:17:20.008Z,23.57
2019-01-23T17:19:50.518Z,24.40
2019-01-23T17:22:21.560Z,25.27
2019-01-23T17:24:51.482Z,24.60
2019-01-23T17:27:21.783Z,24.97
2019-01-23T17:29:51.573Z,24.63
2019-01-23T17:32:21.811Z,23.57
2019-01-23T17:34:51.523Z,22.83
2019-01-23T17:37:24.245Z,22.07
2019-01-23T17:40:07.919Z,24.47
2019-01-23T17:42:38.199Z,25.47
2019-01-23T17:45:25.617Z,22.90
2019-01-23T17:48:29.647Z,28.80
2019-01-23T17:51:03.101Z,26.23
2019-01-23T17:53:32.405Z,24.57
2019-01-23T17:56:01.543Z,22.83
2019-01-23T17:58:30.902Z,22.67
2019-01-23T18:01:04.776Z,23.27
2019-01-23T18:03:34.001Z,23.17
2019-01-23T18:06:03.183Z,22.90
2019-01-23T18:08:32.814Z,23.87
2019-01-23T18:11:01.926Z,23.50
2019-01-23T18:13:31.342Z,21.93
2019-01-23T18:16:10.031Z,22.63
2019-01-23T18:18:39.286Z,22.30
2019-01-23T18:21:08.915Z,21.80
2019-01-23T18:23:38.181Z,24.27
2019-01-23T18:26:07.402Z,23.70
2019-01-23T18:28:42.361Z,22.60
2019-01-23T18:31:53.509Z,24.27
2019-01-23T18:35:07.130Z,25.07
2019-01-23T18:38:06.726Z,22.20
2019-01-23T18:41:47.465Z,24.20
2019-01-23T18:44:47.320Z,22.77
2019-01-23T18:47:45.365Z,25.17
2019-01-23T18:50:45.230Z,23.60
2019-01-23T18:53:14.426Z,23.50
2019-01-23T18:55:43.587Z,21.83
2019-01-23T18:58:12.846Z,24.90
2019-01-23T19:00:42.144Z,24.87
2019-01-23T19:03:11.837Z,23.97
2019-01-23T19:05:45.978Z,24.97
2019-01-23T19:08:24.096Z,23.73
2019-01-23T19:10:56.768Z,24.93
2019-01-23T19:13:56.556Z,23.37
2019-01-23T19:16:31.455Z,23.33
2019-01-23T19:19:01.844Z,24.70
2019-01-23T19:21:34.501Z,23.80
2019-01-23T19:24:51.795Z,23.93
2019-01-23T19:27:22.611Z,23.83
2019-01-23T19:29:53.020Z,22.87
2019-01-23T19:33:13.262Z,22.90
2019-01-23T19:35:49.317Z,26.53
2019-01-23T19:38:26.711Z,24.77
2019-01-23T19:41:04.748Z,24.40
2019-01-23T20:44:25.636Z,23.83
2019-01-23T20:47:14.425Z,23.90
2019-01-23T20:49:43.571Z,23.97
2019-01-23T20:52:12.664Z,23.60
2019-01-23T20:54:43.908Z,21.70
2019-01-23T20:57:14.861Z,22.47
2019-01-23T20:59:44.097Z,23.70
2019-01-23T21:02:13.257Z,23.40
2019-01-23T21:04:42.315Z,23.43
2019-01-23T21:07:11.359Z,21.90
2019-01-23T21:09:40.458Z,23.13
2019-01-23T21:12:09.585Z,22.13
2019-01-23T21:14:41.335Z,23.60
2019-01-23T21:17:10.396Z,23.30
2019-01-23T21:19:41.544Z,23.80
2019-01-23T21:22:10.609Z,24.13
2019-01-23T21:24:39.850Z,22.37
2019-01-23T21:27:08.867Z,23.13
2019-01-23T21:29:37.921Z,22.57
2019-01-23T21:32:06.953Z,22.07
2019-01-23T21:34:35.996Z,23.43
2019-01-23T21:37:05.290Z,24.43
2019-01-23T21:39:34.851Z,21.73
2019-01-23T21:42:03.942Z,21.83
2019-01-23T21:44:33.034Z,23.20
2019-01-23T21:47:02.087Z,23.43
2019-01-23T21:49:31.102Z,22.87
2019-01-23T21:52:04.815Z,22.83
2019-01-23T21:54:39.146Z,20.80
2019-01-23T21:57:09.092Z,23.50
2019-01-23T21:59:38.149Z,19.93
2019-01-23T22:02:07.394Z,23.83
2019-01-23T22:04:36.436Z,19.73
2019-01-23T22:07:05.537Z,23.80
2019-01-23T22:09:34.602Z,16.43
2019-01-23T22:12:03.754Z,21.90
2019-01-23T22:14:32.827Z,22.83
2019-01-23T22:17:02.112Z,21.07
2019-01-23T22:19:31.148Z,23.97
2019-01-23T22:22:00.202Z,21.43
2019-01-23T22:24:29.257Z,21.70
2019-01-23T22:26:58.330Z,23.20
2019-01-23T22:29:27.385Z,24.43
2019-01-23T22:31:56.502Z,23.10
2019-01-23T22:34:25.529Z,22.23
2019-01-23T22:36:57.563Z,23.07
2019-01-23T22:39:26.594Z,22.57
2019-01-23T22:41:55.630Z,20.43
2019-01-23T22:44:25.886Z,22.93
2019-01-23T22:46:54.926Z,25.33
2019-01-23T22:49:23.956Z,23.43
2019-01-23T22:51:52.928Z,21.50
2019-01-23T22:54:21.992Z,23.30
2019-01-23T22:56:52.261Z,22.80
2019-01-23T22:59:21.277Z,22.67
2019-01-23T23:01:50.224Z,21.83
2019-01-23T23:04:19.283Z,23.33
2019-01-23T23:06:48.337Z,22.77
2019-01-23T23:09:17.389Z,23.67
2019-01-23T23:11:46.436Z,22.70
2019-01-23T23:14:15.452Z,21.97
2019-01-23T23:16:44.539Z,23.40
2019-01-23T23:19:13.530Z,23.83
2019-01-23T23:21:42.496Z,22.63
2019-01-23T23:24:11.509Z,21.80
2019-01-23T23:26:40.571Z,24.03
2019-01-23T23:29:09.484Z,22.77
2019-01-23T23:31:38.519Z,23.63
2019-01-23T23:34:10.019Z,25.30
2019-01-23T23:36:38.335Z,24.77
2019-01-23T23:39:09.759Z,24.03
2019-01-23T23:41:38.831Z,23.10
2019-01-23T23:44:07.844Z,22.50
2019-01-23T23:46:36.905Z,25.47
2019-01-23T23:49:05.931Z,24.20
2019-01-23T23:51:34.976Z,24.07
2019-01-23T23:54:03.924Z,23.20
2019-01-23T23:56:32.969Z,21.60
2019-01-23T23:59:02.026Z,23.93
